createdAt,value
2018-07-03T00:00:17.166Z,53.8
2018-07-03T00:01:17.216Z,53.6
2018-07-03T00:02:16.443Z,53.5
2018-07-03T00:03:16.710Z,53.4
2018-07-03T00:04:16.963Z,52.8
2018-07-03T00:05:17.229Z,53.2
2018-07-03T00:06:16.483Z,52.8
2018-07-03T00:07:16.752Z,53.2
2018-07-03T00:08:17.012Z,53.2
2018-07-03T00:09:16.262Z,53.2
2018-07-03T00:10:16.529Z,53.4
2018-07-03T00:11:16.584Z,53.4
2018-07-03T00:12:16.839Z,53.6
2018-07-03T00:13:17.100Z,53.9
2018-07-03T00:14:16.371Z,53.4
2018-07-03T00:15:16.643Z,53.4
2018-07-03T00:16:16.908Z,53.6
2018-07-03T00:17:17.165Z,54.0
2018-07-03T00:18:16.422Z,53.7
2018-07-03T00:19:16.688Z,53.0
2018-07-03T00:20:16.956Z,53.2
2018-07-03T00:21:16.995Z,53.2
2018-07-03T00:22:16.256Z,53.3
2018-07-03T00:23:16.507Z,53.2
2018-07-03T00:24:16.769Z,52.6
2018-07-03T00:25:17.026Z,53.2
2018-07-03T00:26:16.289Z,52.6
2018-07-03T00:27:16.551Z,53.0
2018-07-03T00:28:16.812Z,53.1
2018-07-03T00:29:17.078Z,53.4
2018-07-03T00:30:16.350Z,53.9
2018-07-03T00:31:16.370Z,54.0
2018-07-03T00:32:16.944Z,53.8
2018-07-03T00:33:17.213Z,52.5
2018-07-03T00:34:16.472Z,53.1
2018-07-03T00:35:16.732Z,52.6
2018-07-03T00:36:16.997Z,53.1
2018-07-03T00:37:16.258Z,53.0
2018-07-03T00:38:16.518Z,52.4
2018-07-03T00:39:16.777Z,52.3
2018-07-03T00:40:17.036Z,52.5
2018-07-03T00:41:17.089Z,52.4
2018-07-03T00:42:16.349Z,52.5
2018-07-03T00:43:16.611Z,52.5
2018-07-03T00:44:16.879Z,53.5
2018-07-03T00:45:17.139Z,53.3
2018-07-03T00:46:16.403Z,52.8
2018-07-03T00:47:16.658Z,52.5
2018-07-03T00:48:16.923Z,52.7
2018-07-03T00:49:17.180Z,53.1
2018-07-03T00:50:16.440Z,53.5
2018-07-03T00:51:16.485Z,52.5
2018-07-03T00:52:16.746Z,53.0
2018-07-03T00:53:17.005Z,53.1
2018-07-03T00:54:16.268Z,53.0
2018-07-03T00:55:16.528Z,52.5
2018-07-03T00:56:16.787Z,52.5
2018-07-03T00:57:17.062Z,52.6
2018-07-03T00:58:16.321Z,52.6
2018-07-03T00:59:16.582Z,52.7
2018-07-03T01:00:16.857Z,52.8
2018-07-03T01:01:16.886Z,53.1
2018-07-03T01:02:17.151Z,52.9
2018-07-03T01:03:16.411Z,52.5
2018-07-03T01:04:16.673Z,52.9
2018-07-03T01:05:16.939Z,52.7
2018-07-03T01:06:17.196Z,52.9
2018-07-03T01:07:16.455Z,52.5
2018-07-03T01:08:16.713Z,52.4
2018-07-03T01:09:16.969Z,52.5
2018-07-03T01:10:17.232Z,52.5
2018-07-03T01:11:16.277Z,52.4
2018-07-03T01:12:16.543Z,52.8
2018-07-03T01:13:16.799Z,52.7
2018-07-03T01:14:17.055Z,52.5
2018-07-03T01:15:16.317Z,52.7
2018-07-03T01:16:16.575Z,52.7
2018-07-03T01:17:16.837Z,52.5
2018-07-03T01:18:17.090Z,52.5
2018-07-03T01:19:16.348Z,52.7
2018-07-03T01:20:16.616Z,53.2
2018-07-03T01:21:16.654Z,53.2
2018-07-03T01:22:16.909Z,53.2
2018-07-03T01:23:17.171Z,53.7
2018-07-03T01:24:16.433Z,53.9
2018-07-03T01:25:16.692Z,53.6
2018-07-03T01:26:16.961Z,53.3
2018-07-03T01:27:17.235Z,53.3
2018-07-03T01:28:16.493Z,53.0
2018-07-03T01:29:16.751Z,53.2
2018-07-03T01:30:17.025Z,53.4
2018-07-03T01:31:17.060Z,53.5
2018-07-03T01:32:16.312Z,54.0
2018-07-03T01:33:16.573Z,53.5
2018-07-03T01:34:16.827Z,53.8
2018-07-03T01:35:17.097Z,54.0
2018-07-03T01:36:16.432Z,54.0
2018-07-03T01:37:16.761Z,54.1
2018-07-03T01:38:17.030Z,54.0
2018-07-03T01:39:16.299Z,54.2
2018-07-03T01:40:16.575Z,54.3
2018-07-03T01:41:16.604Z,54.4
2018-07-03T01:42:16.863Z,54.8
2018-07-03T01:43:17.128Z,55.1
2018-07-03T01:44:16.393Z,55.2
2018-07-03T01:45:16.653Z,55.2
2018-07-03T01:46:16.913Z,55.2
2018-07-03T01:47:17.185Z,55.3
2018-07-03T01:48:16.438Z,55.5
2018-07-03T01:49:16.693Z,55.2
2018-07-03T01:50:16.970Z,55.0
2018-07-03T01:51:17.004Z,55.2
2018-07-03T01:52:16.273Z,55.5
2018-07-03T01:53:16.581Z,55.5
2018-07-03T01:54:16.843Z,55.4
2018-07-03T01:55:17.111Z,55.5
2018-07-03T01:56:16.366Z,56.0
2018-07-03T01:57:16.633Z,55.5
2018-07-03T01:58:16.894Z,55.7
2018-07-03T01:59:17.147Z,56.0
2018-07-03T02:00:16.427Z,56.4
2018-07-03T02:01:16.504Z,56.5
2018-07-03T02:02:16.772Z,56.7
2018-07-03T02:03:17.027Z,56.5
2018-07-03T02:04:16.292Z,56.6
2018-07-03T02:05:16.559Z,56.8
2018-07-03T02:06:16.827Z,56.9
2018-07-03T02:07:17.096Z,57.0
2018-07-03T02:08:16.353Z,56.8
2018-07-03T02:09:16.933Z,57.0
2018-07-03T02:10:17.192Z,57.3
2018-07-03T02:11:16.267Z,57.5
2018-07-03T02:12:16.524Z,57.4
2018-07-03T02:13:16.775Z,56.8
2018-07-03T02:14:17.037Z,56.6
2018-07-03T02:15:16.300Z,57.0
2018-07-03T02:16:16.558Z,57.2
2018-07-03T02:17:16.813Z,57.6
2018-07-03T02:18:17.070Z,59.4
2018-07-03T02:19:16.336Z,60.8
2018-07-03T02:20:16.598Z,60.4
2018-07-03T02:21:16.638Z,60.2
2018-07-03T02:22:16.900Z,60.4
2018-07-03T02:23:17.161Z,60.7
2018-07-03T02:24:16.419Z,60.2
2018-07-03T02:25:16.687Z,59.8
2018-07-03T02:26:16.942Z,60.1
2018-07-03T02:27:17.504Z,60.2
2018-07-03T02:28:16.765Z,60.5
2018-07-03T02:29:17.021Z,60.2
2018-07-03T02:30:16.283Z,59.9
2018-07-03T02:31:16.336Z,59.8
2018-07-03T02:32:16.594Z,59.7
2018-07-03T02:33:16.858Z,59.7
2018-07-03T02:34:17.126Z,59.2
2018-07-03T02:35:16.392Z,58.8
2018-07-03T02:36:16.660Z,59.2
2018-07-03T02:37:16.926Z,62.0
2018-07-03T02:38:17.181Z,61.7
2018-07-03T02:39:16.652Z,61.5
2018-07-03T02:40:17.050Z,61.1
2018-07-03T02:41:17.065Z,62.1
2018-07-03T02:42:16.334Z,62.0
2018-07-03T02:43:16.608Z,61.8
2018-07-03T02:44:16.866Z,61.9
2018-07-03T02:45:17.123Z,62.3
2018-07-03T02:46:16.431Z,62.1
2018-07-03T02:47:16.703Z,61.8
2018-07-03T02:48:16.969Z,62.2
2018-07-03T02:49:17.231Z,62.4
2018-07-03T02:50:16.514Z,63.0
2018-07-03T02:51:16.564Z,63.4
2018-07-03T02:52:16.829Z,63.4
2018-07-03T02:53:17.096Z,63.6
2018-07-03T02:54:16.363Z,63.3
2018-07-03T02:55:17.042Z,63.0
2018-07-03T02:56:16.310Z,62.7
2018-07-03T02:57:16.561Z,62.5
2018-07-03T02:58:16.828Z,62.4
2018-07-03T02:59:17.095Z,62.7
2018-07-03T03:00:16.364Z,62.3
2018-07-03T03:01:16.411Z,62.2
2018-07-03T03:02:16.678Z,62.1
2018-07-03T03:03:16.945Z,62.5
2018-07-03T03:04:17.217Z,62.2
2018-07-03T03:05:16.497Z,62.1
2018-07-03T03:06:16.752Z,62.7
2018-07-03T03:07:17.007Z,62.1
2018-07-03T03:08:16.380Z,62.2
2018-07-03T03:09:16.699Z,64.2
2018-07-03T03:10:16.974Z,64.2
2018-07-03T03:11:17.094Z,64.6
2018-07-03T03:12:16.354Z,64.9
2018-07-03T03:13:16.615Z,64.8
2018-07-03T03:14:16.873Z,65.0
2018-07-03T03:15:17.160Z,65.4
2018-07-03T03:16:16.417Z,65.4
2018-07-03T03:17:16.688Z,65.1
2018-07-03T03:18:16.945Z,65.2
2018-07-03T03:19:17.208Z,65.2
2018-07-03T03:20:16.489Z,65.1
2018-07-03T03:21:16.551Z,65.0
2018-07-03T03:22:16.878Z,65.6
2018-07-03T03:23:17.157Z,66.0
2018-07-03T03:24:16.417Z,66.8
2018-07-03T03:25:16.684Z,66.9
2018-07-03T03:26:16.944Z,67.3
2018-07-03T03:27:17.197Z,67.1
2018-07-03T03:28:16.461Z,66.8
2018-07-03T03:29:16.715Z,66.7
2018-07-03T03:30:16.990Z,66.8
2018-07-03T03:31:17.051Z,66.8
2018-07-03T03:32:16.305Z,66.7
2018-07-03T03:33:16.569Z,66.6
2018-07-03T03:34:16.829Z,67.2
2018-07-03T03:35:17.080Z,67.3
2018-07-03T03:36:16.349Z,67.4
2018-07-03T03:37:16.609Z,67.7
2018-07-03T03:38:16.865Z,67.4
2018-07-03T03:39:17.121Z,67.4
2018-07-03T03:40:16.389Z,67.5
2018-07-03T03:41:16.446Z,67.3
2018-07-03T03:42:16.700Z,67.0
2018-07-03T03:43:16.960Z,66.9
2018-07-03T03:44:17.220Z,66.8
2018-07-03T03:45:16.480Z,66.9
2018-07-03T03:46:16.763Z,66.7
2018-07-03T03:47:17.028Z,66.6
2018-07-03T03:48:16.284Z,66.5
2018-07-03T03:49:16.558Z,66.6
2018-07-03T03:50:16.826Z,66.5
2018-07-03T03:51:16.859Z,67.2
2018-07-03T03:52:17.124Z,67.2
2018-07-03T03:53:16.380Z,67.3
2018-07-03T03:54:16.638Z,67.3
2018-07-03T03:55:16.908Z,67.5
2018-07-03T03:56:17.186Z,67.2
2018-07-03T03:57:16.446Z,67.2
2018-07-03T03:58:16.714Z,66.8
2018-07-03T03:59:16.978Z,66.7
2018-07-03T04:00:17.242Z,66.5
2018-07-03T04:01:16.285Z,66.4
2018-07-03T04:02:16.681Z,66.5
2018-07-03T04:03:16.957Z,66.5
2018-07-03T04:04:17.214Z,66.2
2018-07-03T04:05:16.478Z,66.2
2018-07-03T04:06:16.736Z,66.3
2018-07-03T04:07:16.988Z,66.2
2018-07-03T04:08:16.248Z,66.3
2018-07-03T04:09:16.512Z,66.7
2018-07-03T04:10:16.778Z,66.7
2018-07-03T04:11:16.812Z,66.6
2018-07-03T04:12:17.279Z,66.8
2018-07-03T04:13:16.537Z,66.5
2018-07-03T04:14:16.795Z,66.8
2018-07-03T04:15:17.077Z,66.7
2018-07-03T04:16:16.330Z,66.3
2018-07-03T04:17:16.605Z,65.5
2018-07-03T04:18:16.870Z,65.5
2018-07-03T04:19:16.548Z,65.1
2018-07-03T04:20:16.811Z,65.0
2018-07-03T04:21:16.845Z,65.0
2018-07-03T04:22:17.117Z,65.2
2018-07-03T04:23:16.375Z,65.0
2018-07-03T04:24:16.638Z,64.6
2018-07-03T04:25:16.903Z,64.7
2018-07-03T04:26:17.192Z,64.8
2018-07-03T04:27:16.446Z,64.7
2018-07-03T04:28:16.695Z,63.7
2018-07-03T04:29:16.956Z,62.8
2018-07-03T04:30:17.230Z,62.9
2018-07-03T04:31:16.273Z,63.1
2018-07-03T04:32:16.525Z,65.0
2018-07-03T04:33:16.788Z,65.5
2018-07-03T04:34:17.050Z,65.8
2018-07-03T04:35:16.308Z,64.9
2018-07-03T04:36:16.562Z,64.7
2018-07-03T04:37:16.823Z,64.1
2018-07-03T04:38:17.087Z,64.2
2018-07-03T04:39:16.340Z,64.5
2018-07-03T04:40:16.598Z,64.7
2018-07-03T04:41:16.657Z,64.4
2018-07-03T04:42:16.921Z,64.1
2018-07-03T04:43:17.305Z,64.1
2018-07-03T04:44:16.562Z,64.0
2018-07-03T04:45:16.840Z,64.4
2018-07-03T04:46:17.100Z,64.3
2018-07-03T04:47:16.356Z,64.2
2018-07-03T04:48:16.624Z,64.0
2018-07-03T04:49:16.900Z,64.3
2018-07-03T04:50:17.172Z,64.1
2018-07-03T04:51:17.221Z,64.2
2018-07-03T04:52:16.479Z,63.8
2018-07-03T04:53:16.765Z,64.1
2018-07-03T04:54:17.033Z,63.6
2018-07-03T04:55:16.298Z,63.6
2018-07-03T04:56:16.555Z,63.5
2018-07-03T04:57:16.804Z,63.2
2018-07-03T04:58:17.073Z,63.0
2018-07-03T04:59:16.332Z,63.0
2018-07-03T05:00:16.615Z,63.0
2018-07-03T05:01:16.638Z,63.2
2018-07-03T05:02:16.892Z,63.8
2018-07-03T05:03:17.170Z,63.0
2018-07-03T05:04:16.439Z,62.4
2018-07-03T05:05:16.706Z,62.9
2018-07-03T05:06:16.968Z,62.4
2018-07-03T05:07:17.366Z,62.0
2018-07-03T05:08:16.642Z,61.8
2018-07-03T05:09:16.903Z,60.9
2018-07-03T05:10:17.168Z,60.6
2018-07-03T05:11:17.218Z,60.3
2018-07-03T05:12:16.477Z,60.3
2018-07-03T05:13:17.016Z,60.5
2018-07-03T05:14:16.284Z,59.8
2018-07-03T05:15:16.552Z,59.6
2018-07-03T05:16:16.808Z,59.4
2018-07-03T05:17:17.077Z,59.6
2018-07-03T05:18:16.333Z,59.4
2018-07-03T05:19:16.600Z,58.8
2018-07-03T05:20:16.873Z,58.5
2018-07-03T05:21:16.911Z,58.4
2018-07-03T05:22:17.195Z,58.1
2018-07-03T05:23:16.458Z,58.0
2018-07-03T05:24:16.718Z,57.4
2018-07-03T05:25:16.983Z,57.0
2018-07-03T05:26:17.238Z,56.7
2018-07-03T05:27:16.497Z,56.6
2018-07-03T05:28:16.759Z,56.1
2018-07-03T05:29:17.027Z,56.3
2018-07-03T05:30:16.296Z,56.3
2018-07-03T05:31:16.353Z,56.5
2018-07-03T05:32:16.611Z,56.3
2018-07-03T05:33:16.869Z,55.6
2018-07-03T05:34:17.136Z,55.3
2018-07-03T05:35:16.408Z,55.2
2018-07-03T05:36:16.686Z,54.6
2018-07-03T05:37:17.077Z,54.4
2018-07-03T05:38:16.397Z,54.0
2018-07-03T05:39:16.958Z,53.6
2018-07-03T05:40:17.477Z,51.8
2018-07-03T05:41:16.257Z,52.8
2018-07-03T05:42:16.531Z,51.2
2018-07-03T05:43:16.790Z,50.9
2018-07-03T05:44:17.062Z,50.6
2018-07-03T05:45:16.326Z,49.7
2018-07-03T05:46:16.593Z,49.6
2018-07-03T05:47:16.863Z,49.5
2018-07-03T05:48:17.126Z,48.9
2018-07-03T05:49:16.388Z,47.4
2018-07-03T05:50:16.645Z,47.2
2018-07-03T05:51:16.689Z,47.7
2018-07-03T05:52:16.983Z,48.0
2018-07-03T05:53:17.245Z,47.2
2018-07-03T05:54:16.503Z,48.0
2018-07-03T05:55:16.761Z,46.9
2018-07-03T05:56:17.232Z,46.6
2018-07-03T05:57:16.544Z,46.5
2018-07-03T05:58:16.793Z,46.6
2018-07-03T05:59:17.058Z,46.4
2018-07-03T06:00:16.322Z,46.1
2018-07-03T06:01:16.366Z,45.4
2018-07-03T06:02:16.633Z,45.1
2018-07-03T06:03:16.894Z,43.5
2018-07-03T06:04:17.173Z,43.0
2018-07-03T06:05:16.428Z,44.5
2018-07-03T06:06:16.688Z,44.2
2018-07-03T06:07:16.948Z,44.4
2018-07-03T06:08:17.209Z,43.8
2018-07-03T06:09:16.702Z,41.4
2018-07-03T06:10:16.981Z,41.2
2018-07-03T06:11:17.032Z,42.2
2018-07-03T06:12:16.291Z,42.8
2018-07-03T06:13:16.551Z,43.0
2018-07-03T06:14:16.868Z,41.7
2018-07-03T06:15:17.137Z,41.5
2018-07-03T06:16:16.402Z,40.5
2018-07-03T06:17:16.669Z,40.6
2018-07-03T06:18:16.930Z,41.5
2018-07-03T06:19:17.204Z,41.8
2018-07-03T06:20:16.486Z,41.4
2018-07-03T06:21:16.501Z,42.1
2018-07-03T06:22:16.770Z,42.2
2018-07-03T06:23:17.030Z,42.0
2018-07-03T06:24:16.283Z,41.7
2018-07-03T06:25:16.553Z,41.2
2018-07-03T06:26:16.802Z,41.0
2018-07-03T06:27:17.062Z,41.0
2018-07-03T06:28:16.316Z,40.8
2018-07-03T06:29:16.582Z,41.0
2018-07-03T06:30:16.849Z,40.8
2018-07-03T06:31:16.897Z,40.9
2018-07-03T06:32:17.154Z,40.8
2018-07-03T06:33:16.414Z,41.6
2018-07-03T06:34:16.676Z,40.7
2018-07-03T06:35:16.949Z,40.5
2018-07-03T06:36:17.213Z,39.4
2018-07-03T06:37:16.481Z,38.5
2018-07-03T06:38:16.799Z,38.4
2018-07-03T06:39:17.066Z,38.6
2018-07-03T06:40:16.328Z,38.9
2018-07-03T06:41:16.398Z,37.8
2018-07-03T06:42:16.664Z,38.5
2018-07-03T06:43:16.921Z,38.2
2018-07-03T06:44:17.185Z,38.7
2018-07-03T06:45:16.443Z,39.1
2018-07-03T06:46:16.701Z,39.7
2018-07-03T06:47:17.047Z,39.5
2018-07-03T06:48:16.330Z,38.1
2018-07-03T06:49:16.591Z,37.8
2018-07-03T06:50:16.859Z,36.6
2018-07-03T06:51:16.890Z,36.4
2018-07-03T06:52:17.155Z,36.9
2018-07-03T06:53:16.418Z,36.5
2018-07-03T06:54:16.676Z,36.5
2018-07-03T06:55:16.926Z,37.0
2018-07-03T06:56:17.184Z,36.6
2018-07-03T06:57:16.439Z,35.2
2018-07-03T06:58:16.700Z,34.9
2018-07-03T06:59:16.966Z,35.9
2018-07-03T07:00:17.233Z,35.7
2018-07-03T07:01:16.302Z,36.8
2018-07-03T07:02:16.570Z,36.5
2018-07-03T07:03:16.830Z,37.5
2018-07-03T07:04:17.092Z,35.0
2018-07-03T07:05:16.354Z,35.0
2018-07-03T07:06:16.629Z,34.5
2018-07-03T07:07:16.884Z,33.4
2018-07-03T07:08:17.148Z,33.2
2018-07-03T07:09:16.525Z,33.9
2018-07-03T07:10:16.874Z,35.5
2018-07-03T07:11:16.939Z,34.2
2018-07-03T07:12:17.199Z,33.7
2018-07-03T07:13:16.463Z,33.1
2018-07-03T07:14:16.724Z,33.6
2018-07-03T07:15:16.984Z,33.4
2018-07-03T07:16:17.243Z,33.8
2018-07-03T07:17:16.504Z,33.9
2018-07-03T07:18:16.765Z,33.0
2018-07-03T07:19:17.028Z,33.0
2018-07-03T07:20:16.301Z,32.3
2018-07-03T07:21:16.345Z,32.0
2018-07-03T07:22:16.601Z,32.4
2018-07-03T07:23:17.006Z,32.9
2018-07-03T07:24:16.271Z,33.5
2018-07-03T07:25:16.550Z,33.5
2018-07-03T07:26:16.815Z,33.6
2018-07-03T07:27:17.070Z,33.4
2018-07-03T07:28:16.332Z,33.7
2018-07-03T07:29:16.719Z,33.8
2018-07-03T07:30:17.070Z,32.2
2018-07-03T07:31:17.080Z,31.9
2018-07-03T07:32:16.341Z,31.7
2018-07-03T07:33:16.594Z,31.3
2018-07-03T07:34:16.853Z,31.1
2018-07-03T07:35:17.128Z,31.8
2018-07-03T07:36:16.384Z,31.4
2018-07-03T07:37:16.679Z,30.0
2018-07-03T07:38:16.946Z,29.5
2018-07-03T07:39:17.218Z,29.4
2018-07-03T07:40:16.479Z,29.4
2018-07-03T07:41:16.867Z,30.1
2018-07-03T07:42:17.124Z,31.1
2018-07-03T07:43:16.394Z,31.0
2018-07-03T07:44:16.650Z,30.8
2018-07-03T07:45:16.915Z,30.6
2018-07-03T07:46:17.494Z,30.6
2018-07-03T07:47:16.762Z,29.8
2018-07-03T07:48:17.020Z,29.0
2018-07-03T07:49:16.285Z,29.5
2018-07-03T07:50:16.561Z,31.0
2018-07-03T07:51:16.965Z,31.7
2018-07-03T07:52:17.223Z,30.0
2018-07-03T07:53:16.488Z,30.0
2018-07-03T07:54:16.756Z,29.2
2018-07-03T07:55:17.031Z,28.8
2018-07-03T07:56:16.289Z,28.5
2018-07-03T07:57:16.547Z,27.9
2018-07-03T07:58:16.802Z,28.7
2018-07-03T07:59:17.062Z,29.3
2018-07-03T08:00:16.467Z,31.1
2018-07-03T08:01:16.387Z,30.0
2018-07-03T08:02:16.642Z,28.2
2018-07-03T08:03:16.908Z,29.5
2018-07-03T08:04:17.169Z,29.8
2018-07-03T08:05:16.436Z,28.8
2018-07-03T08:06:16.709Z,27.2
2018-07-03T08:07:16.979Z,28.4
2018-07-03T08:08:17.244Z,27.5
2018-07-03T08:09:16.501Z,28.1
2018-07-03T08:10:16.770Z,28.1
2018-07-03T08:11:16.827Z,27.4
2018-07-03T08:12:17.094Z,28.2
2018-07-03T08:13:16.465Z,27.2
2018-07-03T08:14:16.736Z,27.3
2018-07-03T08:15:16.995Z,27.9
2018-07-03T08:16:16.267Z,28.6
2018-07-03T08:17:16.525Z,28.1
2018-07-03T08:18:16.779Z,27.9
2018-07-03T08:19:17.036Z,27.9
2018-07-03T08:20:16.304Z,27.3
2018-07-03T08:21:16.344Z,28.1
2018-07-03T08:22:16.606Z,28.0
2018-07-03T08:23:16.876Z,26.2
2018-07-03T08:24:17.137Z,27.4
2018-07-03T08:25:16.382Z,26.2
2018-07-03T08:26:16.640Z,26.2
2018-07-03T08:27:16.909Z,26.5
2018-07-03T08:28:17.170Z,26.8
2018-07-03T08:29:16.434Z,26.9
2018-07-03T08:30:16.703Z,26.1
2018-07-03T08:31:16.734Z,25.8
2018-07-03T08:32:17.104Z,26.5
2018-07-03T08:33:16.368Z,26.2
2018-07-03T08:34:16.636Z,27.2
2018-07-03T08:35:16.902Z,25.0
2018-07-03T08:36:17.179Z,25.2
2018-07-03T08:37:16.438Z,24.8
2018-07-03T08:38:16.690Z,25.0
2018-07-03T08:39:16.957Z,26.9
2018-07-03T08:40:17.217Z,23.9
2018-07-03T08:41:16.279Z,24.1
2018-07-03T08:42:16.542Z,24.2
2018-07-03T08:43:16.799Z,25.4
2018-07-03T08:44:17.068Z,25.4
2018-07-03T08:45:16.353Z,26.0
2018-07-03T08:46:16.620Z,25.3
2018-07-03T08:47:16.884Z,24.7
2018-07-03T08:48:17.147Z,24.1
2018-07-03T08:49:16.459Z,24.4
2018-07-03T08:50:16.720Z,23.2
2018-07-03T08:51:16.752Z,24.4
2018-07-03T08:52:17.012Z,25.1
2018-07-03T08:53:16.273Z,25.2
2018-07-03T08:54:16.551Z,24.9
2018-07-03T08:55:16.812Z,24.1
2018-07-03T08:56:17.079Z,23.6
2018-07-03T08:57:16.347Z,24.2
2018-07-03T08:58:16.749Z,23.6
2018-07-03T08:59:17.026Z,23.0
2018-07-03T09:00:16.309Z,23.1
2018-07-03T09:01:16.345Z,23.8
2018-07-03T09:02:16.610Z,24.8
2018-07-03T09:03:16.864Z,22.2
2018-07-03T09:04:17.134Z,23.9
2018-07-03T09:05:16.390Z,22.5
2018-07-03T09:06:16.653Z,23.5
2018-07-03T09:07:16.911Z,22.9
2018-07-03T09:08:17.169Z,23.6
2018-07-03T09:09:16.428Z,22.6
2018-07-03T09:10:16.699Z,22.6
2018-07-03T09:11:16.718Z,22.9
2018-07-03T09:12:16.972Z,23.6
2018-07-03T09:13:17.233Z,22.6
2018-07-03T09:14:16.501Z,21.9
2018-07-03T09:15:16.768Z,21.2
2018-07-03T09:16:17.023Z,20.9
2018-07-03T09:17:16.285Z,20.9
2018-07-03T09:18:16.672Z,21.1
2018-07-03T09:19:16.990Z,20.7
2018-07-03T09:20:16.253Z,21.2
2018-07-03T09:21:16.300Z,21.2
2018-07-03T09:22:16.564Z,21.9
2018-07-03T09:23:16.819Z,21.4
2018-07-03T09:24:17.081Z,21.1
2018-07-03T09:25:16.342Z,21.7
2018-07-03T09:26:16.604Z,20.9
2018-07-03T09:27:16.868Z,22.2
2018-07-03T09:28:17.134Z,21.6
2018-07-03T09:29:16.392Z,21.2
2018-07-03T09:30:16.674Z,20.9
2018-07-03T09:31:16.717Z,20.5
2018-07-03T09:32:16.976Z,21.1
2018-07-03T09:33:17.229Z,20.6
2018-07-03T09:34:16.486Z,20.1
2018-07-03T09:35:16.766Z,20.6
2018-07-03T09:36:17.138Z,21.0
2018-07-03T09:37:16.407Z,21.4
2018-07-03T09:38:16.669Z,23.1
2018-07-03T09:39:16.928Z,23.1
2018-07-03T09:40:17.204Z,20.7
2018-07-03T09:41:17.246Z,21.1
2018-07-03T09:42:16.512Z,20.9
2018-07-03T09:43:16.772Z,20.8
2018-07-03T09:44:17.027Z,21.9
2018-07-03T09:45:16.290Z,21.1
2018-07-03T09:46:16.551Z,20.4
2018-07-03T09:47:16.812Z,20.9
2018-07-03T09:48:17.067Z,21.6
2018-07-03T09:49:16.328Z,22.9
2018-07-03T09:50:16.591Z,22.5
2018-07-03T09:51:16.656Z,21.4
2018-07-03T09:52:16.919Z,21.0
2018-07-03T09:53:17.179Z,21.2
2018-07-03T09:54:16.438Z,20.1
2018-07-03T09:55:16.690Z,19.9
2018-07-03T09:56:16.956Z,21.4
2018-07-03T09:57:17.215Z,21.6
2018-07-03T09:58:16.481Z,21.4
2018-07-03T09:59:16.737Z,21.4
2018-07-03T10:00:17.019Z,21.4
2018-07-03T10:01:17.029Z,20.6
2018-07-03T10:02:16.294Z,20.0
2018-07-03T10:03:16.560Z,20.1
2018-07-03T10:04:16.823Z,19.6
2018-07-03T10:05:17.080Z,20.8
2018-07-03T10:06:16.354Z,21.0
2018-07-03T10:07:16.611Z,20.4
2018-07-03T10:08:16.871Z,19.8
2018-07-03T10:09:17.142Z,21.3
2018-07-03T10:10:16.406Z,21.9
2018-07-03T10:11:16.435Z,22.1
2018-07-03T10:12:16.704Z,21.9
2018-07-03T10:13:16.969Z,21.2
2018-07-03T10:14:17.229Z,21.1
2018-07-03T10:15:16.486Z,21.0
2018-07-03T10:16:16.749Z,21.4
2018-07-03T10:17:17.022Z,21.4
2018-07-03T10:18:16.283Z,21.9
2018-07-03T10:19:16.536Z,21.9
2018-07-03T10:20:16.808Z,20.9
2018-07-03T10:21:16.844Z,24.1
2018-07-03T10:22:17.102Z,21.5
2018-07-03T10:23:16.365Z,22.9
2018-07-03T10:24:16.624Z,21.9
2018-07-03T10:25:16.879Z,22.8
2018-07-03T10:26:17.570Z,21.9
2018-07-03T10:27:16.828Z,21.2
2018-07-03T10:28:17.091Z,22.4
2018-07-03T10:29:16.346Z,21.4
2018-07-03T10:30:16.606Z,21.4
2018-07-03T10:31:16.697Z,22.0
2018-07-03T10:32:16.983Z,22.0
2018-07-03T10:33:17.253Z,21.1
2018-07-03T10:34:16.517Z,21.9
2018-07-03T10:35:16.798Z,21.9
2018-07-03T10:36:17.064Z,21.7
2018-07-03T10:37:16.322Z,21.6
2018-07-03T10:38:16.580Z,21.2
2018-07-03T10:39:16.835Z,21.1
2018-07-03T10:40:17.098Z,21.6
2018-07-03T10:41:17.136Z,22.8
2018-07-03T10:42:16.396Z,20.9
2018-07-03T10:43:16.654Z,21.4
2018-07-03T10:44:16.911Z,21.6
2018-07-03T10:45:17.176Z,21.5
2018-07-03T10:46:16.424Z,21.4
2018-07-03T10:47:16.685Z,20.8
2018-07-03T10:48:16.942Z,20.9
2018-07-03T10:49:17.209Z,21.1
2018-07-03T10:50:16.474Z,21.6
2018-07-03T10:51:16.508Z,21.9
2018-07-03T10:52:16.770Z,22.1
2018-07-03T10:53:17.044Z,21.0
2018-07-03T10:54:16.305Z,21.1
2018-07-03T10:55:16.564Z,21.9
2018-07-03T10:56:16.819Z,20.6
2018-07-03T10:57:17.084Z,20.8
2018-07-03T10:58:16.347Z,20.8
2018-07-03T10:59:16.612Z,21.3
2018-07-03T11:00:16.870Z,20.9
2018-07-03T11:01:16.920Z,20.4
2018-07-03T11:02:17.185Z,21.2
2018-07-03T11:03:16.450Z,20.8
2018-07-03T11:04:16.707Z,20.6
2018-07-03T11:05:17.011Z,20.8
2018-07-03T11:06:16.277Z,22.1
2018-07-03T11:07:16.541Z,21.0
2018-07-03T11:08:16.814Z,21.0
2018-07-03T11:09:17.083Z,20.4
2018-07-03T11:10:16.345Z,20.6
2018-07-03T11:11:16.393Z,20.5
2018-07-03T11:12:16.660Z,19.9
2018-07-03T11:13:16.914Z,20.3
2018-07-03T11:14:17.183Z,20.4
2018-07-03T11:15:16.453Z,20.4
2018-07-03T11:16:16.715Z,20.1
2018-07-03T11:17:16.976Z,20.1
2018-07-03T11:18:17.331Z,20.1
2018-07-03T11:19:16.597Z,20.9
2018-07-03T11:20:17.308Z,20.2
2018-07-03T11:21:17.182Z,19.8
2018-07-03T11:22:16.441Z,19.6
2018-07-03T11:23:16.694Z,19.4
2018-07-03T11:24:16.969Z,19.3
2018-07-03T11:25:17.269Z,21.8
2018-07-03T11:26:16.538Z,19.1
2018-07-03T11:27:16.805Z,19.5
2018-07-03T11:28:17.067Z,19.8
2018-07-03T11:29:16.357Z,20.7
2018-07-03T11:30:16.623Z,19.5
2018-07-03T11:31:16.678Z,19.6
2018-07-03T11:32:16.940Z,19.6
2018-07-03T11:33:17.212Z,19.3
2018-07-03T11:34:16.469Z,20.1
2018-07-03T11:35:16.740Z,20.3
2018-07-03T11:36:17.005Z,20.1
2018-07-03T11:37:16.266Z,19.4
2018-07-03T11:38:16.528Z,19.1
2018-07-03T11:39:16.794Z,21.2
2018-07-03T11:40:17.063Z,20.5
2018-07-03T11:41:17.089Z,21.3
2018-07-03T11:42:16.347Z,21.2
2018-07-03T11:43:16.697Z,20.0
2018-07-03T11:44:17.019Z,20.0
2018-07-03T11:45:16.273Z,19.6
2018-07-03T11:46:16.531Z,20.2
2018-07-03T11:47:16.790Z,19.8
2018-07-03T11:48:17.052Z,19.7
2018-07-03T11:49:16.312Z,19.2
2018-07-03T11:50:16.591Z,19.0
2018-07-03T11:51:16.629Z,21.0
2018-07-03T11:52:16.891Z,20.4
2018-07-03T11:53:17.152Z,21.4
2018-07-03T11:54:16.415Z,20.2
2018-07-03T11:55:16.971Z,20.8
2018-07-03T11:56:17.235Z,20.6
2018-07-03T11:57:16.498Z,21.9
2018-07-03T11:58:16.755Z,22.4
2018-07-03T11:59:17.012Z,21.0
2018-07-03T12:00:16.302Z,23.1
2018-07-03T12:01:16.323Z,21.9
2018-07-03T12:02:16.592Z,21.5
2018-07-03T12:03:16.864Z,21.9
2018-07-03T12:04:17.128Z,22.6
2018-07-03T12:05:16.392Z,21.8
2018-07-03T12:06:16.646Z,21.4
2018-07-03T12:07:16.917Z,21.1
2018-07-03T12:08:17.186Z,21.2
2018-07-03T12:09:16.459Z,21.4
2018-07-03T12:10:16.733Z,21.2
2018-07-03T12:11:16.904Z,21.7
2018-07-03T12:12:17.218Z,22.1
2018-07-03T12:13:16.480Z,21.5
2018-07-03T12:14:16.735Z,21.4
2018-07-03T12:15:16.996Z,21.9
2018-07-03T12:16:16.257Z,21.4
2018-07-03T12:17:16.528Z,21.5
2018-07-03T12:18:16.793Z,21.6
2018-07-03T12:19:17.066Z,21.4
2018-07-03T12:20:16.331Z,21.4
2018-07-03T12:21:16.367Z,21.2
2018-07-03T12:22:16.629Z,21.8
2018-07-03T12:23:16.885Z,21.5
2018-07-03T12:24:17.161Z,21.6
2018-07-03T12:25:16.426Z,22.4
2018-07-03T12:26:16.686Z,23.0
2018-07-03T12:27:16.946Z,22.2
2018-07-03T12:28:17.221Z,22.2
2018-07-03T12:29:16.584Z,22.9
2018-07-03T12:30:16.872Z,22.9
2018-07-03T12:31:16.899Z,22.2
2018-07-03T12:32:17.160Z,22.2
2018-07-03T12:33:16.427Z,21.5
2018-07-03T12:34:16.687Z,21.2
2018-07-03T12:35:16.963Z,20.8
2018-07-03T12:36:17.236Z,20.8
2018-07-03T12:37:16.501Z,20.6
2018-07-03T12:38:16.765Z,20.8
2018-07-03T12:39:17.043Z,21.4
2018-07-03T12:40:16.306Z,21.9
2018-07-03T12:41:16.335Z,23.0
2018-07-03T12:42:16.593Z,21.6
2018-07-03T12:43:16.860Z,21.5
2018-07-03T12:44:17.150Z,21.1
2018-07-03T12:45:16.416Z,21.2
2018-07-03T12:46:16.680Z,21.1
2018-07-03T12:47:16.944Z,21.8
2018-07-03T12:48:17.208Z,21.7
2018-07-03T12:49:16.473Z,20.9
2018-07-03T12:50:16.741Z,20.5
2018-07-03T12:51:16.789Z,20.3
2018-07-03T12:52:17.050Z,20.4
2018-07-03T12:53:16.310Z,21.1
2018-07-03T12:54:16.572Z,21.5
2018-07-03T12:55:16.946Z,21.0
2018-07-03T12:56:17.212Z,21.4
2018-07-03T12:57:16.560Z,21.6
2018-07-03T12:58:16.814Z,20.9
2018-07-03T12:59:17.073Z,21.4
2018-07-03T13:00:16.374Z,20.6
2018-07-03T13:01:16.378Z,22.0
2018-07-03T13:02:16.718Z,21.4
2018-07-03T13:03:16.991Z,22.5
2018-07-03T13:04:17.257Z,22.7
2018-07-03T13:05:16.533Z,21.8
2018-07-03T13:06:16.876Z,21.4
2018-07-03T13:07:17.153Z,21.4
2018-07-03T13:08:16.418Z,21.7
2018-07-03T13:09:16.680Z,21.6
2018-07-03T13:10:16.948Z,21.8
2018-07-03T13:11:16.986Z,21.9
2018-07-03T13:12:17.242Z,21.8
2018-07-03T13:13:16.501Z,21.2
2018-07-03T13:14:16.751Z,20.4
2018-07-03T13:15:17.017Z,20.7
2018-07-03T13:16:16.291Z,20.9
2018-07-03T13:17:16.555Z,20.6
2018-07-03T13:18:16.815Z,20.9